Brookings, OR

1:49 AM PDT on September 18, 2014 (GMT -0700)
Gardner Ridge | Change Station
CLOSE
Current Station
Personal Weather Station
Location: Brookings, OR
Elevation: 1365 ft
Nearby Weather Stations

Elev 1365 ft 42.11 °N, 124.21 °W | Updated 5 minutes ago

Rain
Rain
56.5 °F
Feels Like 56.5 °F
N
1.0
Wind Variable Wind from NNE
Gusts 2.0 mph

Today
High -- | Low -- °F
--% Chance of Precip.
Yesterday
High -- | Low -- °F
Precip. -- in
7:00 AM 7:21 PM
Waning Crescent, 29% visible
Pressure 29.74 in
Visibility 6.0 miles
Clouds Few 100 ft
Scattered Clouds 3600 ft
Mostly Cloudy 5000 ft
Dew Point 56 °F
Humidity 98%
Rainfall 0.04 in
Snow Depth Not available.
UV 0 out of 12
Pollen 4.20 out of 12
Air Quality Not available.
Flu Activity Not available.
SPECI KBOK 180813Z AUTO 00000KT 6SM -RA BR FEW001 SCT036 BKN050 15/15 A2974 RMK AO2 BKN V SCT RAB05 P0001

More Conditions Fewer Conditions

Pressure 29.74 in
Visibility 6.0 miles
Clouds Few 100 ft
Scattered Clouds 3600 ft
Mostly Cloudy 5000 ft
Dew Point 56 °F
Humidity 98%
Rainfall 0.04 in
Snow Depth Not available.
UV 0 out of 12
Pollen 4.20 out of 12
Air Quality Not available.
Flu Activity Not available.
SPECI KBOK 180813Z AUTO 00000KT 6SM -RA BR FEW001 SCT036 BKN050 15/15 A2974 RMK AO2 BKN V SCT RAB05 P0001

More Conditions Fewer Conditions

10-Day Weather Forecast

Almanac

Astronomy

Sep. 18, 2014 Rise Set
Actual Time 7:00 AM PDT 7:21 PM PDT
Civil Twilight 6:32 AM PDT 7:49 PM PDT
Nautical Twilight 5:59 AM PDT 8:21 PM PDT
Astronomical Twilight 5:25 AM PDT 8:55 PM PDT
Moon 1:53 AM PDT 4:19 PM PDT
Length of Visible Light 13h 16m
Length of Day
12h 20m
Tomorrow will be 2m 49s shorter.
Waning Crescent, 29% of the Moon is Illuminated
Today
Waning Crescent
Sep 24
New
Oct 1
First Quarter
Oct 8
Full
Oct 15
Last Quarter

Today's Extremes

State Highs State Lows

Community

WunderPhotos

Upload Photos

1,754,310 photos uploaded!

Nearby

Snow Depth

Station Depth Elevation
Gerber Reservoir 0 in 4850 ft
Roaring River 0 in 4900 ft
Madison Butte 0 in 5250 ft
Snow Mountain 0 in 6220 ft
Blazed Alder 0 in 3650 ft

Earthquake Activity

City Distance Mag. Time & Date
No recent earthquake activity has been reported nearby.
Minimum magnitude displayed is 2.5.

Coastal Water Temperatures

Place Temperature
Port Orford, OR 57.0 °F
Crescent City, CA 59.0 °F
Charleston, OR 53.1 °F

Nearby Weather Stations